sensor_id;sensor_type;location;lat;lon;timestamp;P1;durP1;ratioP1;P2;durP2;ratioP2
76566;SDS011;65428;53.194;6.132;2023-01-28T00:02:22;9.43;;;8.63;;
76566;SDS011;65428;53.194;6.132;2023-01-28T00:04:48;9.60;;;8.70;;
76566;SDS011;65428;53.194;6.132;2023-01-28T00:07:14;9.48;;;8.60;;
76566;SDS011;65428;53.194;6.132;2023-01-28T00:09:39;8.70;;;7.90;;
76566;SDS011;65428;53.194;6.132;2023-01-28T00:12:05;9.10;;;8.30;;
76566;SDS011;65428;53.194;6.132;2023-01-28T00:14:31;9.80;;;8.90;;
76566;SDS011;65428;53.194;6.132;2023-01-28T00:16:56;10.03;;;9.13;;
76566;SDS011;65428;53.194;6.132;2023-01-28T00:19:22;9.95;;;9.15;;
76566;SDS011;65428;53.194;6.132;2023-01-28T00:21:48;8.85;;;8.05;;
76566;SDS011;65428;53.194;6.132;2023-01-28T00:24:14;9.15;;;8.35;;
76566;SDS011;65428;53.194;6.132;2023-01-28T00:26:39;8.82;;;8.02;;
76566;SDS011;65428;53.194;6.132;2023-01-28T00:29:05;8.77;;;7.97;;
76566;SDS011;65428;53.194;6.132;2023-01-28T00:31:31;8.32;;;7.63;;
76566;SDS011;65428;53.194;6.132;2023-01-28T00:33:58;6.73;;;6.13;;
76566;SDS011;65428;53.194;6.132;2023-01-28T00:36:24;8.67;;;7.87;;
76566;SDS011;65428;53.194;6.132;2023-01-28T00:38:55;8.70;;;7.90;;
76566;SDS011;65428;53.194;6.132;2023-01-28T00:41:23;9.93;;;9.02;;
76566;SDS011;65428;53.194;6.132;2023-01-28T00:43:50;9.57;;;8.68;;
76566;SDS011;65428;53.194;6.132;2023-01-28T00:46:16;9.57;;;8.67;;
76566;SDS011;65428;53.194;6.132;2023-01-28T00:48:43;9.10;;;8.30;;
76566;SDS011;65428;53.194;6.132;2023-01-28T00:51:10;8.60;;;7.80;;
76566;SDS011;65428;53.194;6.132;2023-01-28T00:53:37;8.90;;;8.07;;
76566;SDS011;65428;53.194;6.132;2023-01-28T00:56:04;10.40;;;9.40;;
76566;SDS011;65428;53.194;6.132;2023-01-28T00:58:31;9.95;;;9.05;;
76566;SDS011;65428;53.194;6.132;2023-01-28T01:01:05;9.88;;;8.93;;
76566;SDS011;65428;53.194;6.132;2023-01-28T01:03:34;9.32;;;8.43;;
76566;SDS011;65428;53.194;6.132;2023-01-28T01:06:00;9.10;;;8.30;;
76566;SDS011;65428;53.194;6.132;2023-01-28T01:08:26;8.60;;;7.80;;
76566;SDS011;65428;53.194;6.132;2023-01-28T01:10:59;8.15;;;7.45;;
76566;SDS011;65428;53.194;6.132;2023-01-28T01:13:25;9.40;;;8.43;;
76566;SDS011;65428;53.194;6.132;2023-01-28T01:15:59;8.38;;;7.68;;
76566;SDS011;65428;53.194;6.132;2023-01-28T01:18:33;9.00;;;8.18;;
76566;SDS011;65428;53.194;6.132;2023-01-28T01:21:00;6.47;;;5.88;;
76566;SDS011;65428;53.194;6.132;2023-01-28T01:23:27;3.90;;;3.55;;
76566;SDS011;65428;53.194;6.132;2023-01-28T01:25:54;4.93;;;4.43;;
76566;SDS011;65428;53.194;6.132;2023-01-28T01:28:20;6.37;;;5.87;;
76566;SDS011;65428;53.194;6.132;2023-01-28T01:30:47;5.70;;;5.20;;
76566;SDS011;65428;53.194;6.132;2023-01-28T01:33:14;6.00;;;5.50;;
76566;SDS011;65428;53.194;6.132;2023-01-28T01:35:40;5.90;;;5.30;;
76566;SDS011;65428;53.194;6.132;2023-01-28T01:38:06;6.15;;;5.60;;
76566;SDS011;65428;53.194;6.132;2023-01-28T01:40:32;7.37;;;6.67;;
76566;SDS011;65428;53.194;6.132;2023-01-28T01:42:58;9.40;;;7.75;;
76566;SDS011;65428;53.194;6.132;2023-01-28T01:45:24;7.20;;;6.50;;
76566;SDS011;65428;53.194;6.132;2023-01-28T01:48:04;8.57;;;7.55;;
76566;SDS011;65428;53.194;6.132;2023-01-28T01:50:42;8.00;;;7.22;;
76566;SDS011;65428;53.194;6.132;2023-01-28T01:53:17;6.87;;;6.27;;
76566;SDS011;65428;53.194;6.132;2023-01-28T01:55:45;6.60;;;6.00;;
76566;SDS011;65428;53.194;6.132;2023-01-28T01:58:15;6.45;;;5.90;;
76566;SDS011;65428;53.194;6.132;2023-01-28T02:00:43;6.30;;;5.80;;
76566;SDS011;65428;53.194;6.132;2023-01-28T02:03:10;5.30;;;4.80;;
76566;SDS011;65428;53.194;6.132;2023-01-28T02:05:37;6.32;;;5.43;;
76566;SDS011;65428;53.194;6.132;2023-01-28T02:08:03;7.00;;;6.40;;
76566;SDS011;65428;53.194;6.132;2023-01-28T02:11:08;9.32;;;8.48;;
76566;SDS011;65428;53.194;6.132;2023-01-28T02:13:41;7.28;;;6.65;;
76566;SDS011;65428;53.194;6.132;2023-01-28T02:16:11;7.57;;;6.88;;
76566;SDS011;65428;53.194;6.132;2023-01-28T02:18:37;7.57;;;6.88;;
76566;SDS011;65428;53.194;6.132;2023-01-28T02:21:09;6.68;;;6.07;;
76566;SDS011;65428;53.194;6.132;2023-01-28T02:30:02;6.00;;;5.50;;
76566;SDS011;65428;53.194;6.132;2023-01-28T02:32:14;6.68;;;6.07;;
76566;SDS011;65428;53.194;6.132;2023-01-28T02:34:47;6.70;;;6.10;;
76566;SDS011;65428;53.194;6.132;2023-01-28T02:37:34;6.75;;;6.15;;
76566;SDS011;65428;53.194;6.132;2023-01-28T02:40:15;6.07;;;5.50;;
76566;SDS011;65428;53.194;6.132;2023-01-28T02:42:47;5.57;;;4.97;;
76566;SDS011;65428;53.194;6.132;2023-01-28T02:48:26;5.57;;;5.10;;
76566;SDS011;65428;53.194;6.132;2023-01-28T02:51:00;5.20;;;4.80;;
76566;SDS011;65428;53.194;6.132;2023-01-28T02:53:45;5.15;;;4.65;;
76566;SDS011;65428;53.194;6.132;2023-01-28T02:56:27;4.90;;;4.50;;
76566;SDS011;65428;53.194;6.132;2023-01-28T03:05:05;5.35;;;4.95;;
76566;SDS011;65428;53.194;6.132;2023-01-28T03:07:52;5.75;;;5.25;;
76566;SDS011;65428;53.194;6.132;2023-01-28T03:10:19;6.55;;;5.95;;
76566;SDS011;65428;53.194;6.132;2023-01-28T03:12:54;5.85;;;5.25;;
76566;SDS011;65428;53.194;6.132;2023-01-28T03:15:41;6.03;;;5.50;;
76566;SDS011;65428;53.194;6.132;2023-01-28T03:18:39;6.00;;;5.45;;
76566;SDS011;65428;53.194;6.132;2023-01-28T03:21:33;6.68;;;5.97;;
76566;SDS011;65428;53.194;6.132;2023-01-28T03:30:00;8.38;;;6.60;;
76566;SDS011;65428;53.194;6.132;2023-01-28T03:32:52;8.00;;;6.40;;
76566;SDS011;65428;53.194;6.132;2023-01-28T03:35:37;7.57;;;6.72;;
76566;SDS011;65428;53.194;6.132;2023-01-28T03:38:22;7.38;;;6.55;;
76566;SDS011;65428;53.194;6.132;2023-01-28T03:40:57;6.90;;;6.20;;
76566;SDS011;65428;53.194;6.132;2023-01-28T03:43:27;6.75;;;5.82;;
76566;SDS011;65428;53.194;6.132;2023-01-28T03:45:54;7.07;;;6.38;;
76566;SDS011;65428;53.194;6.132;2023-01-28T03:48:21;6.30;;;5.70;;
76566;SDS011;65428;53.194;6.132;2023-01-28T03:50:48;5.97;;;5.47;;
76566;SDS011;65428;53.194;6.132;2023-01-28T03:53:15;7.47;;;6.78;;
76566;SDS011;65428;53.194;6.132;2023-01-28T03:55:41;7.80;;;7.00;;
76566;SDS011;65428;53.194;6.132;2023-01-28T03:58:08;7.13;;;6.45;;
76566;SDS011;65428;53.194;6.132;2023-01-28T04:00:34;6.53;;;5.82;;
76566;SDS011;65428;53.194;6.132;2023-01-28T04:03:02;6.47;;;5.85;;
76566;SDS011;65428;53.194;6.132;2023-01-28T04:05:28;6.22;;;5.57;;
76566;SDS011;65428;53.194;6.132;2023-01-28T04:07:54;5.93;;;5.32;;
76566;SDS011;65428;53.194;6.132;2023-01-28T04:10:20;6.47;;;5.88;;
76566;SDS011;65428;53.194;6.132;2023-01-28T04:12:46;6.35;;;5.75;;
76566;SDS011;65428;53.194;6.132;2023-01-28T04:15:14;6.30;;;5.70;;
76566;SDS011;65428;53.194;6.132;2023-01-28T04:17:44;6.87;;;6.27;;
76566;SDS011;65428;53.194;6.132;2023-01-28T04:20:12;5.63;;;5.13;;
76566;SDS011;65428;53.194;6.132;2023-01-28T04:22:38;6.38;;;5.78;;
76566;SDS011;65428;53.194;6.132;2023-01-28T04:25:04;6.20;;;5.70;;
76566;SDS011;65428;53.194;6.132;2023-01-28T04:27:30;5.90;;;5.30;;
76566;SDS011;65428;53.194;6.132;2023-01-28T04:29:56;5.67;;;5.17;;
76566;SDS011;65428;53.194;6.132;2023-01-28T04:32:22;5.75;;;5.15;;
76566;SDS011;65428;53.194;6.132;2023-01-28T04:34:47;5.90;;;5.40;;
76566;SDS011;65428;53.194;6.132;2023-01-28T04:37:13;6.60;;;6.00;;
76566;SDS011;65428;53.194;6.132;2023-01-28T04:39:39;7.37;;;6.67;;
76566;SDS011;65428;53.194;6.132;2023-01-28T04:42:05;6.47;;;5.87;;
76566;SDS011;65428;53.194;6.132;2023-01-28T04:44:30;6.82;;;6.13;;
76566;SDS011;65428;53.194;6.132;2023-01-28T04:46:56;5.90;;;5.22;;
76566;SDS011;65428;53.194;6.132;2023-01-28T04:49:21;6.10;;;5.50;;
76566;SDS011;65428;53.194;6.132;2023-01-28T04:51:47;5.70;;;5.20;;
76566;SDS011;65428;53.194;6.132;2023-01-28T04:54:13;5.43;;;4.82;;
76566;SDS011;65428;53.194;6.132;2023-01-28T04:56:38;6.60;;;6.00;;
76566;SDS011;65428;53.194;6.132;2023-01-28T04:59:04;8.00;;;7.30;;
76566;SDS011;65428;53.194;6.132;2023-01-28T05:01:30;6.95;;;6.35;;
76566;SDS011;65428;53.194;6.132;2023-01-28T05:03:55;6.82;;;6.22;;
76566;SDS011;65428;53.194;6.132;2023-01-28T05:06:21;6.83;;;6.20;;
76566;SDS011;65428;53.194;6.132;2023-01-28T05:08:46;7.20;;;6.40;;
76566;SDS011;65428;53.194;6.132;2023-01-28T05:11:12;6.75;;;6.15;;
76566;SDS011;65428;53.194;6.132;2023-01-28T05:13:38;6.90;;;6.30;;
76566;SDS011;65428;53.194;6.132;2023-01-28T05:16:04;6.30;;;5.70;;
76566;SDS011;65428;53.194;6.132;2023-01-28T05:18:29;7.93;;;7.22;;
76566;SDS011;65428;53.194;6.132;2023-01-28T05:20:55;7.50;;;6.32;;
76566;SDS011;65428;53.194;6.132;2023-01-28T05:23:21;7.40;;;6.70;;
76566;SDS011;65428;53.194;6.132;2023-01-28T05:25:46;7.20;;;6.50;;
76566;SDS011;65428;53.194;6.132;2023-01-28T05:28:12;7.10;;;6.40;;
76566;SDS011;65428;53.194;6.132;2023-01-28T05:30:38;6.90;;;6.30;;
76566;SDS011;65428;53.194;6.132;2023-01-28T05:33:04;7.93;;;7.13;;
76566;SDS011;65428;53.194;6.132;2023-01-28T05:35:30;7.60;;;6.90;;
76566;SDS011;65428;53.194;6.132;2023-01-28T05:37:55;7.47;;;6.77;;
76566;SDS011;65428;53.194;6.132;2023-01-28T05:40:21;8.20;;;7.40;;
76566;SDS011;65428;53.194;6.132;2023-01-28T05:42:47;7.53;;;6.80;;
76566;SDS011;65428;53.194;6.132;2023-01-28T05:45:12;7.80;;;7.00;;
76566;SDS011;65428;53.194;6.132;2023-01-28T05:47:38;8.32;;;7.13;;
76566;SDS011;65428;53.194;6.132;2023-01-28T05:50:04;7.50;;;6.80;;
76566;SDS011;65428;53.194;6.132;2023-01-28T05:52:31;7.60;;;6.90;;
76566;SDS011;65428;53.194;6.132;2023-01-28T05:54:57;7.45;;;6.78;;
76566;SDS011;65428;53.194;6.132;2023-01-28T05:57:22;7.83;;;7.13;;
76566;SDS011;65428;53.194;6.132;2023-01-28T05:59:48;7.20;;;6.60;;
76566;SDS011;65428;53.194;6.132;2023-01-28T06:02:13;7.70;;;7.00;;
76566;SDS011;65428;53.194;6.132;2023-01-28T06:04:39;7.30;;;6.60;;
76566;SDS011;65428;53.194;6.132;2023-01-28T06:07:04;8.03;;;7.27;;
76566;SDS011;65428;53.194;6.132;2023-01-28T06:09:30;7.93;;;7.22;;
76566;SDS011;65428;53.194;6.132;2023-01-28T06:11:56;7.30;;;6.60;;
76566;SDS011;65428;53.194;6.132;2023-01-28T06:14:21;8.60;;;7.80;;
76566;SDS011;65428;53.194;6.132;2023-01-28T06:16:47;7.55;;;6.85;;
76566;SDS011;65428;53.194;6.132;2023-01-28T06:19:12;7.63;;;6.93;;
76566;SDS011;65428;53.194;6.132;2023-01-28T06:21:38;8.37;;;7.67;;
76566;SDS011;65428;53.194;6.132;2023-01-28T06:24:04;7.53;;;6.90;;
76566;SDS011;65428;53.194;6.132;2023-01-28T06:26:30;7.80;;;7.00;;
76566;SDS011;65428;53.194;6.132;2023-01-28T06:28:55;7.90;;;7.20;;
76566;SDS011;65428;53.194;6.132;2023-01-28T06:31:21;8.33;;;7.53;;
76566;SDS011;65428;53.194;6.132;2023-01-28T06:33:46;8.00;;;7.20;;
76566;SDS011;65428;53.194;6.132;2023-01-28T06:36:12;8.45;;;7.65;;
76566;SDS011;65428;53.194;6.132;2023-01-28T06:38:38;7.63;;;6.90;;
76566;SDS011;65428;53.194;6.132;2023-01-28T06:41:03;7.63;;;6.93;;
76566;SDS011;65428;53.194;6.132;2023-01-28T06:43:29;7.80;;;7.10;;
76566;SDS011;65428;53.194;6.132;2023-01-28T06:45:58;7.60;;;6.90;;
76566;SDS011;65428;53.194;6.132;2023-01-28T06:48:25;7.20;;;6.60;;
76566;SDS011;65428;53.194;6.132;2023-01-28T06:50:51;7.22;;;6.53;;
76566;SDS011;65428;53.194;6.132;2023-01-28T06:53:17;7.55;;;6.85;;
76566;SDS011;65428;53.194;6.132;2023-01-28T06:55:44;7.40;;;6.70;;
76566;SDS011;65428;53.194;6.132;2023-01-28T06:58:10;7.65;;;6.90;;
76566;SDS011;65428;53.194;6.132;2023-01-28T07:00:36;8.07;;;7.28;;
76566;SDS011;65428;53.194;6.132;2023-01-28T07:03:02;8.18;;;7.38;;
76566;SDS011;65428;53.194;6.132;2023-01-28T07:05:28;7.90;;;7.13;;
76566;SDS011;65428;53.194;6.132;2023-01-28T07:07:54;7.65;;;6.95;;
76566;SDS011;65428;53.194;6.132;2023-01-28T07:10:20;7.68;;;6.97;;
76566;SDS011;65428;53.194;6.132;2023-01-28T07:12:46;7.43;;;6.72;;
76566;SDS011;65428;53.194;6.132;2023-01-28T07:15:12;7.80;;;7.07;;
76566;SDS011;65428;53.194;6.132;2023-01-28T07:17:42;8.88;;;7.97;;
76566;SDS011;65428;53.194;6.132;2023-01-28T07:20:09;9.60;;;8.45;;
76566;SDS011;65428;53.194;6.132;2023-01-28T07:22:37;10.20;;;9.20;;
76566;SDS011;65428;53.194;6.132;2023-01-28T07:25:05;10.07;;;9.07;;
76566;SDS011;65428;53.194;6.132;2023-01-28T07:27:31;10.30;;;9.30;;
76566;SDS011;65428;53.194;6.132;2023-01-28T07:29:57;10.80;;;9.80;;
76566;SDS011;65428;53.194;6.132;2023-01-28T07:32:22;10.87;;;9.80;;
76566;SDS011;65428;53.194;6.132;2023-01-28T07:34:50;11.07;;;9.88;;
76566;SDS011;65428;53.194;6.132;2023-01-28T07:37:16;11.53;;;10.33;;
76566;SDS011;65428;53.194;6.132;2023-01-28T07:39:42;13.30;;;11.90;;
76566;SDS011;65428;53.194;6.132;2023-01-28T07:42:07;13.23;;;11.73;;
76566;SDS011;65428;53.194;6.132;2023-01-28T07:44:33;13.00;;;11.60;;
76566;SDS011;65428;53.194;6.132;2023-01-28T07:47:01;12.95;;;11.52;;
76566;SDS011;65428;53.194;6.132;2023-01-28T07:49:27;12.27;;;11.02;;
76566;SDS011;65428;53.194;6.132;2023-01-28T07:51:52;12.27;;;11.07;;
76566;SDS011;65428;53.194;6.132;2023-01-28T07:54:18;12.53;;;11.27;;
76566;SDS011;65428;53.194;6.132;2023-01-28T07:56:44;11.50;;;10.40;;
76566;SDS011;65428;53.194;6.132;2023-01-28T07:59:09;11.70;;;10.50;;
76566;SDS011;65428;53.194;6.132;2023-01-28T08:01:35;12.47;;;11.00;;
76566;SDS011;65428;53.194;6.132;2023-01-28T08:04:00;12.90;;;11.60;;
76566;SDS011;65428;53.194;6.132;2023-01-28T08:06:29;11.93;;;10.73;;
76566;SDS011;65428;53.194;6.132;2023-01-28T08:08:55;13.68;;;12.07;;
76566;SDS011;65428;53.194;6.132;2023-01-28T08:11:21;13.60;;;12.00;;
76566;SDS011;65428;53.194;6.132;2023-01-28T08:13:47;14.32;;;12.82;;
76566;SDS011;65428;53.194;6.132;2023-01-28T08:16:13;15.48;;;13.50;;
76566;SDS011;65428;53.194;6.132;2023-01-28T08:18:39;15.00;;;12.50;;
76566;SDS011;65428;53.194;6.132;2023-01-28T08:21:05;14.17;;;12.63;;
76566;SDS011;65428;53.194;6.132;2023-01-28T08:23:31;13.30;;;12.00;;
76566;SDS011;65428;53.194;6.132;2023-01-28T08:25:58;13.80;;;12.45;;
76566;SDS011;65428;53.194;6.132;2023-01-28T08:28:24;13.90;;;12.50;;
76566;SDS011;65428;53.194;6.132;2023-01-28T08:30:50;13.20;;;11.90;;
76566;SDS011;65428;53.194;6.132;2023-01-28T08:33:16;12.33;;;11.03;;
76566;SDS011;65428;53.194;6.132;2023-01-28T08:35:43;13.82;;;12.48;;
76566;SDS011;65428;53.194;6.132;2023-01-28T08:38:09;13.10;;;11.80;;
76566;SDS011;65428;53.194;6.132;2023-01-28T08:40:37;11.57;;;10.37;;
76566;SDS011;65428;53.194;6.132;2023-01-28T08:43:03;12.33;;;11.13;;
76566;SDS011;65428;53.194;6.132;2023-01-28T08:45:29;13.03;;;11.73;;
76566;SDS011;65428;53.194;6.132;2023-01-28T08:47:56;12.10;;;10.80;;
76566;SDS011;65428;53.194;6.132;2023-01-28T08:50:27;11.90;;;10.77;;
76566;SDS011;65428;53.194;6.132;2023-01-28T08:52:57;11.77;;;10.70;;
76566;SDS011;65428;53.194;6.132;2023-01-28T08:55:24;11.65;;;10.45;;
76566;SDS011;65428;53.194;6.132;2023-01-28T08:57:50;11.65;;;10.55;;
76566;SDS011;65428;53.194;6.132;2023-01-28T09:00:16;11.75;;;10.65;;
76566;SDS011;65428;53.194;6.132;2023-01-28T09:02:43;12.13;;;10.97;;
76566;SDS011;65428;53.194;6.132;2023-01-28T09:05:09;11.30;;;10.20;;
76566;SDS011;65428;53.194;6.132;2023-01-28T09:07:35;12.32;;;11.07;;
76566;SDS011;65428;53.194;6.132;2023-01-28T09:10:02;11.82;;;10.73;;
76566;SDS011;65428;53.194;6.132;2023-01-28T09:12:29;11.50;;;10.50;;
76566;SDS011;65428;53.194;6.132;2023-01-28T09:14:55;11.88;;;10.80;;
76566;SDS011;65428;53.194;6.132;2023-01-28T09:17:21;12.13;;;10.93;;
76566;SDS011;65428;53.194;6.132;2023-01-28T09:19:46;11.85;;;10.73;;
76566;SDS011;65428;53.194;6.132;2023-01-28T09:22:12;11.18;;;10.18;;
76566;SDS011;65428;53.194;6.132;2023-01-28T09:24:38;12.60;;;11.27;;
76566;SDS011;65428;53.194;6.132;2023-01-28T09:27:03;12.00;;;10.73;;
76566;SDS011;65428;53.194;6.132;2023-01-28T09:29:29;11.37;;;10.17;;
76566;SDS011;65428;53.194;6.132;2023-01-28T09:31:55;11.38;;;10.20;;
76566;SDS011;65428;53.194;6.132;2023-01-28T09:34:20;11.57;;;10.47;;
76566;SDS011;65428;53.194;6.132;2023-01-28T09:36:46;12.27;;;11.07;;
76566;SDS011;65428;53.194;6.132;2023-01-28T09:39:11;11.82;;;10.73;;
76566;SDS011;65428;53.194;6.132;2023-01-28T09:46:54;11.27;;;10.17;;
76566;SDS011;65428;53.194;6.132;2023-01-28T09:52:00;10.82;;;9.73;;
76566;SDS011;65428;53.194;6.132;2023-01-28T09:57:14;10.18;;;9.18;;
76566;SDS011;65428;53.194;6.132;2023-01-28T09:59:46;10.32;;;9.32;;
76566;SDS011;65428;53.194;6.132;2023-01-28T10:07:46;10.45;;;9.45;;
76566;SDS011;65428;53.194;6.132;2023-01-28T10:10:16;9.63;;;8.63;;
76566;SDS011;65428;53.194;6.132;2023-01-28T10:12:54;8.52;;;7.70;;
76566;SDS011;65428;53.194;6.132;2023-01-28T10:18:44;8.93;;;8.00;;
76566;SDS011;65428;53.194;6.132;2023-01-28T10:21:19;7.77;;;6.97;;
76566;SDS011;65428;53.194;6.132;2023-01-28T10:24:07;7.68;;;6.97;;
76566;SDS011;65428;53.194;6.132;2023-01-28T10:26:52;7.22;;;6.63;;
76566;SDS011;65428;53.194;6.132;2023-01-28T10:29:20;7.78;;;6.97;;
76566;SDS011;65428;53.194;6.132;2023-01-28T10:31:51;9.03;;;8.13;;
76566;SDS011;65428;53.194;6.132;2023-01-28T10:34:40;8.55;;;7.75;;
76566;SDS011;65428;53.194;6.132;2023-01-28T10:37:05;8.68;;;7.88;;
76566;SDS011;65428;53.194;6.132;2023-01-28T10:39:33;8.40;;;7.60;;
76566;SDS011;65428;53.194;6.132;2023-01-28T10:41:58;9.00;;;8.20;;
76566;SDS011;65428;53.194;6.132;2023-01-28T10:44:31;9.38;;;8.57;;
76566;SDS011;65428;53.194;6.132;2023-01-28T10:47:03;9.27;;;8.38;;
76566;SDS011;65428;53.194;6.132;2023-01-28T10:49:45;9.32;;;8.43;;
76566;SDS011;65428;53.194;6.132;2023-01-28T10:52:15;9.05;;;8.15;;
76566;SDS011;65428;53.194;6.132;2023-01-28T10:54:42;8.98;;;8.18;;
76566;SDS011;65428;53.194;6.132;2023-01-28T10:57:12;8.65;;;7.85;;
76566;SDS011;65428;53.194;6.132;2023-01-28T10:59:40;9.02;;;8.23;;
76566;SDS011;65428;53.194;6.132;2023-01-28T11:05:13;8.60;;;7.80;;
76566;SDS011;65428;53.194;6.132;2023-01-28T11:07:41;9.98;;;9.07;;
76566;SDS011;65428;53.194;6.132;2023-01-28T11:12:57;8.60;;;7.80;;
76566;SDS011;65428;53.194;6.132;2023-01-28T11:15:24;9.35;;;8.45;;
76566;SDS011;65428;53.194;6.132;2023-01-28T11:17:54;9.15;;;8.25;;
76566;SDS011;65428;53.194;6.132;2023-01-28T11:20:23;10.13;;;9.18;;
76566;SDS011;65428;53.194;6.132;2023-01-28T11:22:50;9.73;;;8.82;;
76566;SDS011;65428;53.194;6.132;2023-01-28T11:25:18;9.10;;;8.20;;
76566;SDS011;65428;53.194;6.132;2023-01-28T11:27:52;9.30;;;8.38;;
76566;SDS011;65428;53.194;6.132;2023-01-28T11:30:23;9.20;;;8.37;;
76566;SDS011;65428;53.194;6.132;2023-01-28T11:32:55;8.77;;;7.85;;
76566;SDS011;65428;53.194;6.132;2023-01-28T11:35:24;8.63;;;7.40;;
76566;SDS011;65428;53.194;6.132;2023-01-28T11:37:52;8.60;;;7.72;;
76566;SDS011;65428;53.194;6.132;2023-01-28T11:40:18;8.40;;;7.53;;
76566;SDS011;65428;53.194;6.132;2023-01-28T11:42:45;9.35;;;8.45;;
76566;SDS011;65428;53.194;6.132;2023-01-28T11:45:16;8.93;;;8.02;;
76566;SDS011;65428;53.194;6.132;2023-01-28T11:47:47;8.15;;;7.38;;
76566;SDS011;65428;53.194;6.132;2023-01-28T11:53:15;7.65;;;6.78;;
76566;SDS011;65428;53.194;6.132;2023-01-28T12:04:24;7.30;;;6.50;;
76566;SDS011;65428;53.194;6.132;2023-01-28T12:07:15;6.78;;;6.07;;
76566;SDS011;65428;53.194;6.132;2023-01-28T12:15:07;8.50;;;6.72;;
76566;SDS011;65428;53.194;6.132;2023-01-28T12:20:51;6.43;;;5.82;;
76566;SDS011;65428;53.194;6.132;2023-01-28T12:23:34;6.72;;;6.13;;
76566;SDS011;65428;53.194;6.132;2023-01-28T12:26:12;6.78;;;6.18;;
76566;SDS011;65428;53.194;6.132;2023-01-28T12:48:01;7.05;;;6.35;;
76566;SDS011;65428;53.194;6.132;2023-01-28T12:50:49;6.85;;;6.15;;
76566;SDS011;65428;53.194;6.132;2023-01-28T12:56:17;7.87;;;6.10;;
76566;SDS011;65428;53.194;6.132;2023-01-28T12:59:04;6.63;;;5.97;;
76566;SDS011;65428;53.194;6.132;2023-01-28T13:04:41;9.80;;;7.50;;
76566;SDS011;65428;53.194;6.132;2023-01-28T13:07:12;6.95;;;6.03;;
76566;SDS011;65428;53.194;6.132;2023-01-28T13:12:50;19.40;;;17.00;;
76566;SDS011;65428;53.194;6.132;2023-01-28T13:15:17;16.30;;;14.60;;
76566;SDS011;65428;53.194;6.132;2023-01-28T13:17:57;8.60;;;7.70;;
76566;SDS011;65428;53.194;6.132;2023-01-28T13:20:28;8.27;;;7.00;;
76566;SDS011;65428;53.194;6.132;2023-01-28T13:23:05;8.40;;;4.55;;
76566;SDS011;65428;53.194;6.132;2023-01-28T13:25:47;6.00;;;5.17;;
76566;SDS011;65428;53.194;6.132;2023-01-28T13:28:24;6.80;;;5.22;;
76566;SDS011;65428;53.194;6.132;2023-01-28T13:30:59;6.07;;;4.95;;
76566;SDS011;65428;53.194;6.132;2023-01-28T13:33:40;7.57;;;5.00;;
76566;SDS011;65428;53.194;6.132;2023-01-28T13:36:22;7.55;;;5.18;;
76566;SDS011;65428;53.194;6.132;2023-01-28T13:39:06;7.90;;;5.85;;
76566;SDS011;65428;53.194;6.132;2023-01-28T13:46:49;6.83;;;5.50;;
76566;SDS011;65428;53.194;6.132;2023-01-28T13:49:17;7.00;;;5.00;;
76566;SDS011;65428;53.194;6.132;2023-01-28T13:54:35;7.85;;;5.22;;
76566;SDS011;65428;53.194;6.132;2023-01-28T14:16:59;5.80;;;4.20;;
76566;SDS011;65428;53.194;6.132;2023-01-28T14:19:36;7.20;;;5.18;;
76566;SDS011;65428;53.194;6.132;2023-01-28T14:22:08;8.30;;;5.85;;
76566;SDS011;65428;53.194;6.132;2023-01-28T14:24:40;8.30;;;6.43;;
76566;SDS011;65428;53.194;6.132;2023-01-28T14:32:42;8.32;;;6.75;;
76566;SDS011;65428;53.194;6.132;2023-01-28T14:35:32;6.50;;;5.13;;
76566;SDS011;65428;53.194;6.132;2023-01-28T14:38:05;7.43;;;5.68;;
76566;SDS011;65428;53.194;6.132;2023-01-28T14:40:35;7.72;;;5.97;;
76566;SDS011;65428;53.194;6.132;2023-01-28T14:43:03;6.78;;;4.90;;
76566;SDS011;65428;53.194;6.132;2023-01-28T14:54:07;7.53;;;4.53;;
76566;SDS011;65428;53.194;6.132;2023-01-28T14:57:02;5.07;;;4.33;;
76566;SDS011;65428;53.194;6.132;2023-01-28T14:59:44;6.90;;;4.40;;
76566;SDS011;65428;53.194;6.132;2023-01-28T15:02:21;7.13;;;4.60;;
76566;SDS011;65428;53.194;6.132;2023-01-28T15:04:48;7.82;;;4.57;;
76566;SDS011;65428;53.194;6.132;2023-01-28T15:07:17;8.15;;;5.18;;
76566;SDS011;65428;53.194;6.132;2023-01-28T15:09:45;6.43;;;5.10;;
76566;SDS011;65428;53.194;6.132;2023-01-28T15:12:13;8.07;;;4.90;;
76566;SDS011;65428;53.194;6.132;2023-01-28T15:14:40;8.33;;;5.40;;
76566;SDS011;65428;53.194;6.132;2023-01-28T15:17:13;7.68;;;5.57;;
76566;SDS011;65428;53.194;6.132;2023-01-28T15:19:47;8.27;;;5.70;;
76566;SDS011;65428;53.194;6.132;2023-01-28T15:22:13;8.87;;;6.27;;
76566;SDS011;65428;53.194;6.132;2023-01-28T15:24:40;8.00;;;6.63;;
76566;SDS011;65428;53.194;6.132;2023-01-28T15:27:16;8.68;;;6.15;;
76566;SDS011;65428;53.194;6.132;2023-01-28T15:29:52;9.95;;;6.40;;
76566;SDS011;65428;53.194;6.132;2023-01-28T15:32:23;8.65;;;6.00;;
76566;SDS011;65428;53.194;6.132;2023-01-28T15:34:52;7.13;;;5.35;;
76566;SDS011;65428;53.194;6.132;2023-01-28T15:37:19;7.93;;;5.20;;
76566;SDS011;65428;53.194;6.132;2023-01-28T15:39:45;8.13;;;4.97;;
76566;SDS011;65428;53.194;6.132;2023-01-28T15:42:22;6.70;;;4.97;;
76566;SDS011;65428;53.194;6.132;2023-01-28T15:44:53;9.20;;;5.88;;
76566;SDS011;65428;53.194;6.132;2023-01-28T15:47:24;7.60;;;4.50;;
76566;SDS011;65428;53.194;6.132;2023-01-28T15:49:53;7.65;;;4.82;;
76566;SDS011;65428;53.194;6.132;2023-01-28T15:52:20;7.20;;;4.25;;
76566;SDS011;65428;53.194;6.132;2023-01-28T15:54:56;6.10;;;4.10;;
76566;SDS011;65428;53.194;6.132;2023-01-28T15:57:29;9.20;;;4.37;;
76566;SDS011;65428;53.194;6.132;2023-01-28T16:00:29;6.30;;;4.20;;
76566;SDS011;65428;53.194;6.132;2023-01-28T16:02:50;7.28;;;4.15;;
76566;SDS011;65428;53.194;6.132;2023-01-28T16:07:49;5.82;;;3.83;;
76566;SDS011;65428;53.194;6.132;2023-01-28T16:10:19;6.97;;;3.90;;
76566;SDS011;65428;53.194;6.132;2023-01-28T16:12:50;7.05;;;3.83;;
76566;SDS011;65428;53.194;6.132;2023-01-28T16:15:26;7.25;;;3.95;;
76566;SDS011;65428;53.194;6.132;2023-01-28T16:17:51;6.80;;;3.67;;
76566;SDS011;65428;53.194;6.132;2023-01-28T16:20:21;5.60;;;3.15;;
76566;SDS011;65428;53.194;6.132;2023-01-28T16:22:49;7.68;;;3.95;;
76566;SDS011;65428;53.194;6.132;2023-01-28T16:27:51;5.72;;;2.88;;
76566;SDS011;65428;53.194;6.132;2023-01-28T16:30:17;7.57;;;3.10;;
76566;SDS011;65428;53.194;6.132;2023-01-28T16:32:43;5.38;;;3.03;;
76566;SDS011;65428;53.194;6.132;2023-01-28T16:35:28;5.57;;;3.15;;
76566;SDS011;65428;53.194;6.132;2023-01-28T16:37:54;6.38;;;3.20;;
76566;SDS011;65428;53.194;6.132;2023-01-28T16:40:21;6.18;;;3.40;;
76566;SDS011;65428;53.194;6.132;2023-01-28T16:42:48;5.43;;;3.53;;
76566;SDS011;65428;53.194;6.132;2023-01-28T16:45:18;4.83;;;3.43;;
76566;SDS011;65428;53.194;6.132;2023-01-28T16:47:47;7.10;;;3.80;;
76566;SDS011;65428;53.194;6.132;2023-01-28T16:50:13;8.15;;;4.35;;
76566;SDS011;65428;53.194;6.132;2023-01-28T16:52:44;5.60;;;3.87;;
76566;SDS011;65428;53.194;6.132;2023-01-28T16:55:12;7.20;;;4.10;;
76566;SDS011;65428;53.194;6.132;2023-01-28T16:57:39;7.10;;;4.07;;
76566;SDS011;65428;53.194;6.132;2023-01-28T17:00:06;6.07;;;4.28;;
76566;SDS011;65428;53.194;6.132;2023-01-28T17:02:40;6.97;;;3.90;;
76566;SDS011;65428;53.194;6.132;2023-01-28T17:05:06;7.10;;;4.22;;
76566;SDS011;65428;53.194;6.132;2023-01-28T17:07:32;6.03;;;3.85;;
76566;SDS011;65428;53.194;6.132;2023-01-28T17:09:58;7.93;;;4.10;;
76566;SDS011;65428;53.194;6.132;2023-01-28T17:12:23;6.75;;;4.13;;
76566;SDS011;65428;53.194;6.132;2023-01-28T17:14:50;8.07;;;3.70;;
76566;SDS011;65428;53.194;6.132;2023-01-28T17:17:15;5.55;;;3.92;;
76566;SDS011;65428;53.194;6.132;2023-01-28T17:19:41;6.15;;;3.97;;